Main page
METAR-TAF:

METAR-TAF

Airports :

Murmansk Airport

Murmansk, Russia

latitude: 68-58N, longitude: 033-03E, elevation: 51 m

Current weather observation

The report was made 12 minutes ago, at 22:30 UTC
Wind 2 kt from the Southwest
Temperature 2°C
Humidity 100%
Pressure 1010 hPa
Visibility 10 km or more
no clouds below 1500 m and no cumulonimbus

METAR: ULMM 162230Z 23001MPS CAVOK 02/02 Q1010 R31/290060 NOSIG RMK QFE751

Time: 01:42 (22:42 UTC)

Forecast

The report was made 2 hours and 51 minutes ago, at 19:51 UTC
Forecast valid from 16 at 21 UTC to 17 at 21 UTC
Wind 6 kt from the West/Southwest
Visibility 10 km or more
Scattered clouds at a height of 3000 ft
Temporary
from 17 at 06 UTC to 17 at 18 UTC
Wind 10 kt from the West with gusts up to 19 kt
Broken clouds at a height of 1600 ft, Cumulonimbus.
light rain showers

TAF: ULMM 161951Z 1621/1721 25003MPS 9999 SCT030 TEMPO 1706/1718 28005G10MPS -SHRA BKN016CB

Weather observations and forecasts of more than 4000 airports (METAR and TAF reports).

The available stations are represented by yellow and red dots on the map.

Hover mouse over dot to see the name of the station.

Then click to see weather observations and forecasts.

To change the map : click on the green buttons with a black cross to zoom in, on the green button with a dash to zoom out, or on the green arrows for adjacent maps.


METAR-TAF: